Time;durP1;ratioP1;P1;durP2;ratioP2;P2;SDS_P1;SDS_P2;PMS_P1;PMS_P2;Temp;Humidity;BMP_temperature;BMP_pressure;BME280_temperature;BME280_humidity;BME280_pressure;Samples;Min_cycle;Max_cycle;Signal;HPM_P1;HPM_P2
2023/04/26 00:02:16;;;;;;;7.70;3.47;;;3.20;99.90;;;;;;5031674;28;20235;-89
2023/04/26 00:04:42;;;;;;;8.48;3.05;;;3.20;99.90;;;;;;5021908;28;20158;-88
2023/04/26 00:07:08;;;;;;;9.38;3.45;;;3.20;99.90;;;;;;5029815;28;20190;-88
2023/04/26 00:09:34;;;;;;;10.27;3.33;;;3.30;99.90;;;;;;5016933;28;20041;-87
2023/04/26 00:12:00;;;;;;;9.38;3.15;;;3.30;99.90;;;;;;5029060;28;20032;-88
2023/04/26 00:14:25;;;;;;;7.57;3.10;;;3.50;99.90;;;;;;5012637;28;20468;-89
2023/04/26 00:16:51;;;;;;;9.55;3.28;;;3.50;99.90;;;;;;5027930;28;20482;-88
2023/04/26 00:19:20;;;;;;;6.18;2.67;;;3.50;99.90;;;;;;5031522;28;20029;-88
2023/04/26 00:21:45;;;;;;;10.18;2.88;;;3.60;99.90;;;;;;5017540;28;20043;-88
2023/04/26 00:24:11;;;;;;;5.78;2.72;;;3.60;99.90;;;;;;5026316;28;20128;-88
2023/04/26 00:26:37;;;;;;;7.32;2.60;;;3.50;99.90;;;;;;5029753;28;20367;-88
2023/04/26 00:29:06;;;;;;;6.90;3.10;;;3.50;99.90;;;;;;5013199;28;20491;-88
2023/04/26 00:31:31;;;;;;;8.48;3.05;;;3.50;99.90;;;;;;5012402;28;20044;-88
2023/04/26 00:33:57;;;;;;;9.18;3.35;;;3.40;99.90;;;;;;5030797;28;20045;-89
2023/04/26 00:36:22;;;;;;;11.73;2.90;;;3.40;99.90;;;;;;5036926;28;20033;-87
2023/04/26 00:38:48;;;;;;;7.93;3.10;;;3.30;99.90;;;;;;5021253;28;20551;-87
2023/04/26 00:41:14;;;;;;;9.05;2.92;;;3.30;99.90;;;;;;5017308;28;20650;-88
2023/04/26 00:43:40;;;;;;;7.82;2.88;;;3.30;99.90;;;;;;5034526;28;20522;-88
2023/04/26 00:46:09;;;;;;;8.80;3.10;;;3.30;99.90;;;;;;5042385;28;20129;-88
2023/04/26 00:48:38;;;;;;;7.72;3.00;;;3.30;99.90;;;;;;5020128;28;20048;-89
2023/04/26 00:51:06;;;;;;;7.18;3.03;;;3.20;99.90;;;;;;5019927;28;20067;-88
2023/04/26 00:53:35;;;;;;;7.03;3.13;;;3.20;99.90;;;;;;5037765;28;20045;-87
2023/04/26 00:56:02;;;;;;;9.30;3.13;;;3.20;99.90;;;;;;5035024;28;20045;-88
2023/04/26 00:58:28;;;;;;;8.88;3.00;;;3.10;99.90;;;;;;5021540;28;20132;-88
2023/04/26 01:00:54;;;;;;;8.30;3.10;;;3.00;99.90;;;;;;5031913;28;20061;-88
2023/04/26 01:03:23;;;;;;;8.88;3.25;;;3.00;99.90;;;;;;5016524;28;20297;-88
2023/04/26 01:05:49;;;;;;;5.13;2.80;;;2.90;99.90;;;;;;5035930;28;20055;-88
2023/04/26 01:08:19;;;;;;;10.63;2.70;;;2.90;99.90;;;;;;5034234;28;20049;-89
2023/04/26 01:10:46;;;;;;;13.45;3.40;;;2.90;99.90;;;;;;5014694;28;20095;-88
2023/04/26 01:13:13;;;;;;;7.53;2.75;;;2.80;99.90;;;;;;5030282;28;20049;-89
2023/04/26 01:15:45;;;;;;;7.05;3.20;;;2.80;99.90;;;;;;5031397;28;20061;-87
2023/04/26 01:18:11;;;;;;;9.30;3.13;;;2.80;99.90;;;;;;5018556;28;20072;-87
2023/04/26 01:20:41;;;;;;;9.75;2.88;;;2.80;99.90;;;;;;5016609;28;20103;-88
2023/04/26 01:23:08;;;;;;;12.63;3.28;;;2.80;99.90;;;;;;5035344;28;20110;-88
2023/04/26 01:25:34;;;;;;;9.95;2.80;;;2.80;99.90;;;;;;5033700;28;20057;-88
2023/04/26 01:28:00;;;;;;;9.38;3.03;;;2.80;99.90;;;;;;5015635;28;20133;-88
2023/04/26 01:30:25;;;;;;;7.90;2.70;;;2.80;99.90;;;;;;5014731;28;20118;-88
2023/04/26 01:32:51;;;;;;;11.02;2.83;;;2.70;99.90;;;;;;5016207;28;20160;-87
2023/04/26 01:35:17;;;;;;;16.70;3.67;;;2.70;99.90;;;;;;5017466;28;20029;-87
2023/04/26 01:37:43;;;;;;;7.93;3.08;;;2.80;99.90;;;;;;5020697;28;20044;-87
2023/04/26 01:40:10;;;;;;;14.77;3.90;;;2.80;99.90;;;;;;5014223;28;20041;-87
2023/04/26 01:42:35;;;;;;;8.05;3.45;;;2.80;99.90;;;;;;5014498;28;20136;-88
2023/04/26 01:45:01;;;;;;;12.60;2.97;;;2.90;99.90;;;;;;5020373;28;20124;-88
2023/04/26 01:47:27;;;;;;;11.27;3.47;;;2.90;99.90;;;;;;5052738;28;20049;-85
2023/04/26 01:49:52;;;;;;;12.18;3.50;;;3.00;99.90;;;;;;5034069;28;20098;-87
2023/04/26 01:52:18;;;;;;;8.70;3.35;;;3.00;99.90;;;;;;5017849;28;20042;-87
2023/04/26 01:54:43;;;;;;;8.07;3.22;;;3.00;99.90;;;;;;5020010;28;20067;-87
2023/04/26 01:57:09;;;;;;;9.70;2.88;;;3.10;99.90;;;;;;5032515;28;20037;-88
2023/04/26 01:59:35;;;;;;;5.28;2.80;;;3.20;99.90;;;;;;5014836;28;20370;-87
2023/04/26 02:02:00;;;;;;;7.38;2.72;;;3.20;99.90;;;;;;5021012;28;20476;-88
2023/04/26 02:04:27;;;;;;;6.30;2.70;;;3.20;99.90;;;;;;5016793;28;20063;-87
2023/04/26 02:06:52;;;;;;;9.25;3.17;;;3.20;99.90;;;;;;5017034;28;20029;-88
2023/04/26 02:09:18;;;;;;;8.05;2.60;;;3.20;99.90;;;;;;5016023;28;20040;-88
2023/04/26 02:11:44;;;;;;;8.07;2.67;;;3.20;99.90;;;;;;5048077;28;20043;-87
2023/04/26 02:14:09;;;;;;;6.80;2.70;;;3.20;99.90;;;;;;5015074;28;20057;-87
2023/04/26 02:16:35;;;;;;;8.38;2.95;;;3.20;99.90;;;;;;5016742;28;20084;-88
2023/04/26 02:19:04;;;;;;;6.82;2.83;;;3.10;99.90;;;;;;5018081;28;20044;-88
2023/04/26 02:21:29;;;;;;;6.07;2.50;;;3.20;99.90;;;;;;5035120;28;20507;-87
2023/04/26 02:23:56;;;;;;;8.45;2.80;;;3.10;99.90;;;;;;5032235;28;20041;-87
2023/04/26 02:26:21;;;;;;;6.90;2.70;;;3.10;99.90;;;;;;5034427;28;20618;-87
2023/04/26 02:28:47;;;;;;;6.32;2.90;;;3.10;99.90;;;;;;5030598;28;20299;-88
2023/04/26 02:31:13;;;;;;;6.82;2.47;;;3.10;99.90;;;;;;5014410;28;20641;-87
2023/04/26 02:33:38;;;;;;;7.45;3.00;;;3.10;99.90;;;;;;5013378;28;20154;-87
2023/04/26 02:36:05;;;;;;;9.40;3.20;;;3.00;99.90;;;;;;5030490;28;20579;-87
2023/04/26 02:38:35;;;;;;;10.32;3.03;;;3.00;99.90;;;;;;5019667;28;20498;-88
2023/04/26 02:41:02;;;;;;;9.30;2.50;;;3.00;99.90;;;;;;5023354;28;20032;-88
2023/04/26 02:43:28;;;;;;;9.52;3.00;;;3.00;99.90;;;;;;5031135;28;20184;-87
2023/04/26 02:45:53;;;;;;;9.05;2.75;;;2.90;99.90;;;;;;5034020;28;20112;-87
2023/04/26 02:48:19;;;;;;;11.18;3.35;;;2.90;99.90;;;;;;5018340;28;20133;-87
2023/04/26 02:50:48;;;;;;;7.75;2.97;;;3.00;99.90;;;;;;5014189;28;20042;-88
2023/04/26 02:53:14;;;;;;;11.27;2.83;;;3.00;99.90;;;;;;5016834;28;20171;-87
2023/04/26 02:55:40;;;;;;;7.55;3.00;;;2.90;99.90;;;;;;5029330;28;20089;-88
2023/04/26 02:58:06;;;;;;;6.82;2.78;;;2.90;99.90;;;;;;5028789;28;20469;-88
2023/04/26 03:00:35;;;;;;;8.38;2.92;;;2.80;99.90;;;;;;5014406;28;20037;-87
2023/04/26 03:03:04;;;;;;;6.07;2.72;;;2.90;99.90;;;;;;5016799;28;20094;-88
2023/04/26 03:05:30;;;;;;;10.60;2.70;;;2.80;99.90;;;;;;5036782;28;20504;-88
2023/04/26 03:07:55;;;;;;;7.05;2.45;;;2.90;99.90;;;;;;5034976;28;20048;-87
2023/04/26 03:10:21;;;;;;;6.70;2.58;;;2.80;99.90;;;;;;5030518;28;20091;-87
2023/04/26 03:12:46;;;;;;;6.25;2.55;;;2.90;99.90;;;;;;5015685;28;20080;-87
2023/04/26 03:15:12;;;;;;;8.27;2.70;;;2.90;99.90;;;;;;5033326;28;20041;-87
2023/04/26 03:17:38;;;;;;;7.22;2.72;;;2.90;99.90;;;;;;5030256;28;20049;-87
2023/04/26 03:20:06;;;;;;;7.40;2.80;;;2.90;99.90;;;;;;5033593;28;20456;-87
2023/04/26 03:22:32;;;;;;;5.78;2.35;;;2.90;99.90;;;;;;5015539;28;20029;-87
2023/04/26 03:24:58;;;;;;;4.32;2.47;;;2.90;99.90;;;;;;5016148;28;20071;-87
2023/04/26 03:27:23;;;;;;;6.55;2.67;;;3.00;99.90;;;;;;5030670;28;20067;-87
2023/04/26 03:29:49;;;;;;;6.93;2.47;;;3.10;99.90;;;;;;5014212;28;20650;-87
2023/04/26 03:32:15;;;;;;;7.18;3.08;;;3.10;99.90;;;;;;5019245;28;20501;-87
2023/04/26 03:34:44;;;;;;;4.78;2.70;;;3.20;99.90;;;;;;5016125;28;20044;-87
2023/04/26 03:37:09;;;;;;;5.50;2.30;;;3.20;99.90;;;;;;5031552;28;20029;-87
2023/04/26 03:39:35;;;;;;;7.55;3.10;;;3.20;99.90;;;;;;5016888;28;20125;-87
2023/04/26 03:42:02;;;;;;;7.72;2.70;;;3.20;99.90;;;;;;5031970;28;20480;-87
2023/04/26 03:44:28;;;;;;;5.63;2.70;;;3.30;99.90;;;;;;5030499;28;20064;-87
2023/04/26 03:46:54;;;;;;;8.75;2.60;;;3.30;99.90;;;;;;5028542;28;20452;-87
2023/04/26 03:49:20;;;;;;;5.03;2.70;;;3.30;99.90;;;;;;5032401;28;20108;-86
2023/04/26 03:51:46;;;;;;;6.30;2.67;;;3.30;99.90;;;;;;5030548;28;20087;-87
2023/04/26 03:54:12;;;;;;;5.93;2.40;;;3.30;99.90;;;;;;5033088;28;20040;-87
2023/04/26 03:56:38;;;;;;;7.57;2.13;;;3.30;99.90;;;;;;5033145;28;20041;-87
2023/04/26 03:59:04;;;;;;;8.10;2.60;;;3.30;99.90;;;;;;5031690;28;20395;-87
2023/04/26 04:01:30;;;;;;;4.30;2.38;;;3.30;99.90;;;;;;5034000;28;20094;-87
2023/04/26 04:03:56;;;;;;;8.43;2.88;;;3.30;99.90;;;;;;5027743;28;20120;-87
2023/04/26 04:06:22;;;;;;;6.03;2.30;;;3.30;99.90;;;;;;5031477;28;20400;-87
2023/04/26 04:08:47;;;;;;;4.80;2.60;;;3.30;99.90;;;;;;5019979;28;20040;-88
2023/04/26 04:11:13;;;;;;;4.53;2.85;;;3.20;99.90;;;;;;5018465;28;20457;-87
2023/04/26 04:13:39;;;;;;;6.82;2.60;;;3.20;99.90;;;;;;5035607;28;20056;-88
2023/04/26 04:16:05;;;;;;;6.97;2.65;;;3.30;99.90;;;;;;5017446;28;20037;-87
2023/04/26 04:18:31;;;;;;;7.15;2.80;;;3.20;99.90;;;;;;5031915;28;20037;-87
2023/04/26 04:20:57;;;;;;;5.18;2.75;;;3.20;99.90;;;;;;5018549;28;20108;-87
2023/04/26 04:23:23;;;;;;;7.70;2.60;;;3.20;99.90;;;;;;5023364;28;20048;-86
2023/04/26 04:25:50;;;;;;;6.72;2.78;;;3.20;99.90;;;;;;5039939;28;20466;-87
2023/04/26 04:28:16;;;;;;;8.13;2.72;;;3.20;99.90;;;;;;5021093;28;20055;-88
2023/04/26 04:30:43;;;;;;;8.60;2.85;;;3.30;99.90;;;;;;5020526;28;20794;-87
2023/04/26 04:33:12;;;;;;;9.00;3.50;;;3.30;99.90;;;;;;5036668;28;20045;-88
2023/04/26 04:35:40;;;;;;;6.63;2.70;;;3.30;99.90;;;;;;5022640;28;20436;-87
2023/04/26 04:38:06;;;;;;;7.80;2.85;;;3.30;99.90;;;;;;5019914;28;20052;-86
2023/04/26 04:40:31;;;;;;;6.65;2.60;;;3.40;99.90;;;;;;5033626;28;20055;-87
2023/04/26 04:42:59;;;;;;;7.45;2.78;;;3.40;99.90;;;;;;5018623;28;20053;-87
2023/04/26 04:45:25;;;;;;;8.23;2.88;;;3.40;99.90;;;;;;5016696;28;20049;-87
2023/04/26 04:47:52;;;;;;;9.35;2.67;;;3.40;99.90;;;;;;5036737;28;20068;-87
2023/04/26 04:50:19;;;;;;;6.60;2.92;;;3.40;99.90;;;;;;5031922;28;20045;-87
2023/04/26 04:52:45;;;;;;;7.65;3.35;;;3.40;99.90;;;;;;5020612;28;20178;-87
2023/04/26 04:55:10;;;;;;;5.43;2.50;;;3.50;99.90;;;;;;5018355;28;20124;-87
2023/04/26 04:57:36;;;;;;;5.75;3.05;;;3.40;99.90;;;;;;5030076;28;20783;-87
2023/04/26 05:00:09;;;;;;;4.93;2.58;;;3.50;99.90;;;;;;5018931;28;20344;-87
2023/04/26 05:02:35;;;;;;;5.45;2.58;;;3.40;99.90;;;;;;5016671;28;20488;-87
2023/04/26 05:05:03;;;;;;;7.45;2.63;;;3.50;99.90;;;;;;5030878;28;20068;-87
2023/04/26 05:07:31;;;;;;;8.65;2.97;;;3.50;99.90;;;;;;5032482;28;20140;-87
2023/04/26 05:10:00;;;;;;;8.07;3.20;;;3.50;99.90;;;;;;5018403;28;20041;-88
2023/04/26 05:12:26;;;;;;;4.78;2.80;;;3.50;99.90;;;;;;5039464;28;20048;-88
2023/04/26 05:14:51;;;;;;;7.45;2.85;;;3.50;99.90;;;;;;5034401;28;20132;-88
2023/04/26 05:17:17;;;;;;;4.82;2.45;;;3.50;99.90;;;;;;5018914;28;20136;-87
2023/04/26 05:19:43;;;;;;;6.60;2.70;;;3.60;99.90;;;;;;5018370;28;20037;-87
2023/04/26 05:22:17;;;;;;;7.88;2.90;;;3.60;99.90;;;;;;5034582;28;20044;-87
2023/04/26 05:24:44;;;;;;;9.25;2.92;;;3.80;99.90;;;;;;5020308;28;20337;-87
2023/04/26 05:27:10;;;;;;;6.63;3.05;;;3.80;99.90;;;;;;5018026;28;20039;-87
2023/04/26 05:29:36;;;;;;;7.32;3.10;;;3.90;99.90;;;;;;5036655;28;20049;-87
2023/04/26 05:32:01;;;;;;;4.18;2.60;;;3.90;99.90;;;;;;5032621;28;20047;-87
2023/04/26 05:34:27;;;;;;;10.23;3.40;;;4.00;99.90;;;;;;5013718;28;20037;-88
2023/04/26 05:36:56;;;;;;;6.47;3.58;;;4.10;99.90;;;;;;5032797;28;20040;-88
2023/04/26 05:39:22;;;;;;;5.70;2.78;;;4.20;99.90;;;;;;5011150;28;20163;-87
2023/04/26 05:41:47;;;;;;;9.98;3.30;;;4.20;99.90;;;;;;5034064;28;20492;-88
2023/04/26 05:44:13;;;;;;;7.65;2.90;;;4.30;99.90;;;;;;5011846;28;20497;-88
2023/04/26 05:46:39;;;;;;;8.30;3.28;;;4.30;99.90;;;;;;5033714;28;20055;-86
2023/04/26 05:49:05;;;;;;;7.75;3.00;;;4.40;99.90;;;;;;5017555;28;20033;-88
2023/04/26 05:51:31;;;;;;;9.30;3.00;;;4.60;99.90;;;;;;5036889;28;20061;-88
2023/04/26 05:53:57;;;;;;;11.23;3.20;;;4.70;99.90;;;;;;5015268;28;20572;-88
2023/04/26 05:56:24;;;;;;;9.23;2.95;;;4.80;99.90;;;;;;5032889;28;20123;-87
2023/04/26 05:58:50;;;;;;;9.15;3.35;;;5.00;99.90;;;;;;5017505;28;20048;-87
2023/04/26 06:01:16;;;;;;;7.97;3.00;;;5.00;99.90;;;;;;5037311;28;20048;-88
2023/04/26 06:03:43;;;;;;;6.47;2.83;;;5.10;99.90;;;;;;5015144;28;20514;-88
2023/04/26 06:06:10;;;;;;;6.72;2.65;;;5.20;99.90;;;;;;5017530;28;20435;-87
2023/04/26 06:08:35;;;;;;;6.80;2.75;;;5.10;99.90;;;;;;5014055;28;20577;-87
2023/04/26 06:11:01;;;;;;;8.50;3.22;;;5.10;99.90;;;;;;5033032;28;20045;-87
2023/04/26 06:13:27;;;;;;;5.35;2.85;;;5.30;99.90;;;;;;5016791;28;20078;-88
2023/04/26 06:15:53;;;;;;;6.15;2.42;;;5.30;99.90;;;;;;5018565;28;20326;-87
2023/04/26 06:18:19;;;;;;;5.65;2.63;;;5.30;99.90;;;;;;5013356;28;20049;-88
2023/04/26 06:20:46;;;;;;;6.68;2.70;;;5.50;99.90;;;;;;5030797;28;20048;-87
2023/04/26 06:23:11;;;;;;;9.43;2.67;;;5.60;99.90;;;;;;5014963;28;20033;-88
2023/04/26 06:25:42;;;;;;;8.40;2.78;;;5.70;99.90;;;;;;5035264;28;20043;-87
2023/04/26 06:28:08;;;;;;;4.10;2.65;;;5.70;99.90;;;;;;5033044;28;20556;-87
2023/04/26 06:30:34;;;;;;;6.10;2.65;;;5.80;99.90;;;;;;5015756;28;20052;-88
2023/04/26 06:32:59;;;;;;;5.05;2.50;;;5.80;99.90;;;;;;5016094;28;20116;-87
2023/04/26 06:35:25;;;;;;;4.72;2.47;;;5.80;99.90;;;;;;5032849;28;20029;-88
2023/04/26 06:37:51;;;;;;;6.50;2.65;;;6.00;99.90;;;;;;5015962;28;20488;-88
2023/04/26 06:40:19;;;;;;;7.63;2.28;;;6.10;99.90;;;;;;5032933;28;20036;-88
2023/04/26 06:42:45;;;;;;;6.50;2.20;;;6.20;99.90;;;;;;5015888;28;20076;-87
2023/04/26 06:45:11;;;;;;;5.25;2.53;;;6.20;99.90;;;;;;5031327;28;20037;-88
2023/04/26 06:47:37;;;;;;;6.93;2.13;;;6.30;99.90;;;;;;5014133;28;20370;-87
2023/04/26 06:50:03;;;;;;;7.97;2.58;;;6.40;99.90;;;;;;5020072;28;20036;-88
2023/04/26 06:52:30;;;;;;;5.38;2.25;;;6.30;99.90;;;;;;5033153;28;20049;-88
2023/04/26 06:54:55;;;;;;;4.10;2.10;;;6.20;99.90;;;;;;5015543;28;20033;-88
2023/04/26 06:57:21;;;;;;;5.63;2.22;;;6.20;99.90;;;;;;5032476;28;20140;-88
2023/04/26 06:59:47;;;;;;;7.65;3.25;;;6.30;99.90;;;;;;5034027;28;20072;-88
2023/04/26 07:02:15;;;;;;;7.38;2.65;;;6.50;99.90;;;;;;5016218;28;20060;-88
2023/04/26 07:04:41;;;;;;;7.22;2.67;;;6.60;99.90;;;;;;5029016;28;20123;-88
2023/04/26 07:07:06;;;;;;;10.00;2.50;;;6.70;99.90;;;;;;5035670;28;20452;-88
2023/04/26 07:09:32;;;;;;;5.18;2.65;;;6.90;99.90;;;;;;5014627;28;20127;-88
2023/04/26 07:11:58;;;;;;;6.10;3.00;;;6.70;99.90;;;;;;5017190;28;20345;-88
2023/04/26 07:14:24;;;;;;;5.82;2.63;;;6.90;99.90;;;;;;5014584;28;20158;-88
2023/04/26 07:16:50;;;;;;;6.50;2.80;;;6.90;99.90;;;;;;5035705;28;20508;-89
2023/04/26 07:19:16;;;;;;;5.75;2.42;;;6.90;99.90;;;;;;5031713;28;20033;-87
2023/04/26 07:21:42;;;;;;;6.03;2.90;;;7.00;99.90;;;;;;5035107;28;20494;-88
2023/04/26 07:24:08;;;;;;;7.22;2.80;;;7.10;99.90;;;;;;5014579;28;20052;-87
2023/04/26 07:26:35;;;;;;;7.82;2.63;;;7.10;99.90;;;;;;5024077;28;20045;-88
2023/04/26 07:29:03;;;;;;;10.90;3.10;;;7.10;99.90;;;;;;5017501;28;20052;-86
2023/04/26 07:31:30;;;;;;;7.60;2.53;;;7.00;99.90;;;;;;5014797;28;20066;-88
2023/04/26 07:34:02;;;;;;;7.95;2.50;;;7.30;99.90;;;;;;5032655;28;20523;-87
2023/04/26 07:36:28;;;;;;;5.70;2.88;;;7.40;99.90;;;;;;5037636;28;20067;-87
2023/04/26 07:38:54;;;;;;;6.97;2.75;;;7.50;99.90;;;;;;5030327;28;20048;-88
2023/04/26 07:41:19;;;;;;;8.90;2.85;;;7.60;99.90;;;;;;5029046;28;20488;-87
2023/04/26 07:43:45;;;;;;;8.55;2.90;;;7.70;99.90;;;;;;5014253;28;20377;-86
2023/04/26 07:46:10;;;;;;;7.50;3.30;;;7.70;99.90;;;;;;5030813;28;20045;-88
2023/04/26 07:48:39;;;;;;;5.05;2.45;;;7.80;99.90;;;;;;5030981;28;20128;-88
2023/04/26 07:51:10;;;;;;;7.22;2.80;;;7.80;99.90;;;;;;5036658;28;20076;-87
2023/04/26 07:53:36;;;;;;;7.85;2.78;;;8.20;99.90;;;;;;5035880;28;20083;-88
2023/04/26 07:56:08;;;;;;;12.10;3.65;;;8.00;99.90;;;;;;5016977;28;20698;-87
2023/04/26 07:58:35;;;;;;;6.65;2.60;;;8.40;99.90;;;;;;5031178;28;20073;-87
2023/04/26 08:01:02;;;;;;;5.97;2.83;;;8.10;99.90;;;;;;5013573;28;20033;-87
2023/04/26 08:03:31;;;;;;;5.65;2.50;;;8.40;99.90;;;;;;5031052;28;20581;-87
2023/04/26 08:06:00;;;;;;;6.68;2.65;;;8.10;99.90;;;;;;5034215;28;20094;-87
2023/04/26 08:08:26;;;;;;;5.40;2.70;;;8.50;99.90;;;;;;5018566;28;20032;-88
2023/04/26 08:10:52;;;;;;;8.98;3.53;;;8.40;99.90;;;;;;5013261;28;20041;-88
2023/04/26 08:13:18;;;;;;;6.10;2.53;;;8.60;99.90;;;;;;5030789;28;20059;-88
2023/04/26 08:15:43;;;;;;;8.55;2.80;;;8.90;94.90;;;;;;5015335;28;20041;-87
2023/04/26 08:18:09;;;;;;;5.57;2.50;;;9.10;99.90;;;;;;5016824;28;20041;-87
2023/04/26 08:20:35;;;;;;;4.60;2.15;;;9.00;99.90;;;;;;5014967;28;20033;-87
2023/04/26 08:23:04;;;;;;;7.63;2.15;;;8.80;99.90;;;;;;5018840;28;20460;-88
2023/04/26 08:25:29;;;;;;;7.47;2.22;;;9.00;99.90;;;;;;5033278;28;20122;-88
2023/04/26 08:27:55;;;;;;;7.38;2.30;;;9.20;99.90;;;;;;5029442;28;20452;-88
2023/04/26 08:30:22;;;;;;;6.32;2.30;;;9.30;99.90;;;;;;5017196;28;20037;-87
2023/04/26 08:32:47;;;;;;;4.95;2.13;;;9.20;1.00;;;;;;5014645;28;20180;-87
2023/04/26 08:35:13;;;;;;;5.43;2.17;;;8.70;99.90;;;;;;5013688;28;20595;-88
2023/04/26 08:37:39;;;;;;;6.28;2.20;;;8.70;99.90;;;;;;5031492;28;20073;-88
2023/04/26 08:40:10;;;;;;;6.32;2.28;;;8.40;1.00;;;;;;5013983;28;20026;-87
2023/04/26 08:42:42;;;;;;;5.65;2.42;;;8.40;99.90;;;;;;5012228;28;20615;-87
2023/04/26 08:45:11;;;;;;;6.72;2.55;;;8.50;1.00;;;;;;5032912;28;20170;-88
2023/04/26 08:47:37;;;;;;;11.52;2.97;;;8.60;1.00;;;;;;5032403;28;20535;-88
2023/04/26 08:50:04;;;;;;;10.15;3.03;;;8.70;99.90;;;;;;5030713;28;20566;-87
2023/04/26 08:52:34;;;;;;;5.60;2.28;;;8.90;99.90;;;;;;5031491;28;20049;-87
2023/04/26 08:55:00;;;;;;;6.93;2.40;;;8.70;55.80;;;;;;5039190;28;20123;-88
2023/04/26 08:57:31;;;;;;;5.22;2.30;;;8.70;1.00;;;;;;5015954;28;20050;-87
2023/04/26 08:59:57;;;;;;;6.18;2.33;;;8.60;1.00;;;;;;5052492;28;20119;-88
2023/04/26 09:02:23;;;;;;;6.78;2.63;;;8.40;99.90;;;;;;5035328;28;20398;-88
2023/04/26 09:04:50;;;;;;;7.80;2.63;;;8.20;99.90;;;;;;5034171;28;20120;-87
2023/04/26 09:07:30;;;;;;;8.77;3.20;;;8.00;1.00;;;;;;5019508;28;20040;-87
2023/04/26 09:09:58;;;;;;;5.35;2.33;;;7.90;1.00;;;;;;5031927;28;20493;-87
2023/04/26 09:12:24;;;;;;;5.82;2.53;;;7.80;1.00;;;;;;5032178;28;20243;-87
2023/04/26 09:14:50;;;;;;;6.72;2.53;;;7.50;70.50;;;;;;5024349;28;20052;-88
2023/04/26 09:17:38;;;;;;;6.75;2.78;;;7.00;99.90;;;;;;5037698;28;20040;-88
2023/04/26 09:20:24;;;;;;;9.93;2.80;;;6.90;99.90;;;;;;5033755;28;20563;-88
2023/04/26 09:22:52;;;;;;;7.05;2.90;;;6.90;99.90;;;;;;5036999;28;20483;-87
2023/04/26 09:25:26;;;;;;;7.50;2.80;;;7.20;99.90;;;;;;5018302;28;20048;-88
2023/04/26 09:27:52;;;;;;;9.20;3.00;;;7.30;99.90;;;;;;5017450;28;20045;-88
2023/04/26 09:30:19;;;;;;;7.20;2.97;;;7.40;99.90;;;;;;5031914;28;20037;-88
2023/04/26 09:32:48;;;;;;;7.88;2.78;;;7.60;99.90;;;;;;5036141;28;20583;-87
2023/04/26 09:35:21;;;;;;;8.73;3.25;;;7.60;99.90;;;;;;5032858;28;20037;-87
2023/04/26 09:38:03;;;;;;;8.65;2.80;;;7.60;99.90;;;;;;5016017;28;20484;-87
2023/04/26 09:40:32;;;;;;;8.48;2.88;;;7.70;99.90;;;;;;5035166;28;20056;-88
2023/04/26 09:43:03;;;;;;;8.32;2.80;;;7.70;99.90;;;;;;5018017;28;20123;-89
2023/04/26 09:45:30;;;;;;;8.38;3.28;;;7.70;99.90;;;;;;5013794;28;20286;-88
2023/04/26 09:48:16;;;;;;;6.65;2.92;;;7.80;99.90;;;;;;5033289;28;20044;-87
2023/04/26 09:50:44;;;;;;;3.47;2.30;;;7.80;99.90;;;;;;5035388;28;20128;-88
2023/04/26 09:53:10;;;;;;;6.88;2.55;;;7.80;99.90;;;;;;5014982;28;20134;-88
2023/04/26 09:55:36;;;;;;;5.68;2.60;;;7.70;90.10;;;;;;5015943;28;20137;-88
2023/04/26 09:58:12;;;;;;;6.53;2.75;;;8.00;1.00;;;;;;5020709;28;20258;-87
2023/04/26 10:00:41;;;;;;;8.90;2.65;;;8.20;99.90;;;;;;5021074;28;20510;-88
2023/04/26 10:03:08;;;;;;;6.10;2.42;;;8.30;2.90;;;;;;5037790;28;20460;-88
2023/04/26 10:05:35;;;;;;;7.00;2.40;;;8.50;16.20;;;;;;5032936;28;20523;-88
2023/04/26 10:08:02;;;;;;;8.02;2.50;;;8.50;99.90;;;;;;5018598;28;20499;-88
2023/04/26 10:10:30;;;;;;;7.25;2.70;;;8.60;32.40;;;;;;5014286;28;20043;-88
2023/04/26 10:12:56;;;;;;;10.32;2.67;;;9.10;99.90;;;;;;5032000;28;20048;-87
2023/04/26 10:15:22;;;;;;;8.55;2.95;;;9.20;99.90;;;;;;5014953;28;20045;-89
2023/04/26 10:17:48;;;;;;;8.07;2.92;;;9.60;99.90;;;;;;5033011;28;20065;-89
2023/04/26 10:20:16;;;;;;;7.85;3.00;;;9.80;99.90;;;;;;5028744;28;20076;-88
2023/04/26 10:22:59;;;;;;;8.25;3.33;;;9.60;99.90;;;;;;5030481;28;20041;-88
2023/04/26 10:25:40;;;;;;;8.60;3.08;;;9.80;99.90;;;;;;5015911;28;20633;-88
2023/04/26 10:28:15;;;;;;;7.97;3.10;;;9.80;4.70;;;;;;5014884;28;20426;-87
2023/04/26 10:30:57;;;;;;;4.82;2.38;;;9.80;1.00;;;;;;5030287;28;20087;-87
2023/04/26 10:33:27;;;;;;;5.03;2.55;;;9.50;1.00;;;;;;5014396;28;20045;-88
2023/04/26 10:36:11;;;;;;;7.00;2.42;;;9.30;99.90;;;;;;5015336;28;20041;-88
2023/04/26 10:39:23;;;;;;;5.60;2.60;;;9.10;25.80;;;;;;5033109;28;20033;-87
2023/04/26 10:41:49;;;;;;;5.70;2.45;;;8.90;1.00;;;;;;5033830;28;20052;-87
2023/04/26 10:44:51;;;;;;;7.28;2.60;;;8.80;1.00;;;;;;5013911;28;20489;-87
2023/04/26 10:47:30;;;;;;;9.88;3.75;;;8.10;34.00;;;;;;4999487;28;20176;-87
2023/04/26 10:50:16;;;;;;;8.85;3.13;;;7.80;1.00;;;;;;5011799;28;20049;-88
2023/04/26 10:53:00;;;;;;;7.30;2.67;;;7.80;99.90;;;;;;5019138;28;20052;-87
2023/04/26 10:55:40;;;;;;;4.18;2.40;;;7.60;99.90;;;;;;5020605;28;20040;-88
2023/04/26 10:58:33;;;;;;;4.82;2.55;;;7.80;28.20;;;;;;5018597;28;20490;-88
2023/04/26 11:01:12;;;;;;;6.80;2.75;;;7.90;99.90;;;;;;5003159;28;20088;-88
2023/04/26 11:03:39;;;;;;;6.60;2.97;;;8.20;99.90;;;;;;5036610;28;20056;-88
2023/04/26 11:06:08;;;;;;;4.13;2.30;;;8.40;1.00;;;;;;5029393;28;20036;-87
2023/04/26 11:08:35;;;;;;;9.43;2.47;;;8.50;99.90;;;;;;5037139;28;20051;-88
2023/04/26 11:11:05;;;;;;;5.47;2.83;;;8.70;1.00;;;;;;5013684;28;20492;-88
2023/04/26 11:13:41;;;;;;;6.03;2.47;;;9.20;59.50;;;;;;5011272;28;20087;-88
2023/04/26 11:16:09;;;;;;;6.15;2.30;;;9.30;99.90;;;;;;5014808;28;20063;-88
2023/04/26 11:18:37;;;;;;;6.47;2.13;;;9.00;99.90;;;;;;5031849;28;20384;-88
2023/04/26 11:21:04;;;;;;;5.78;2.30;;;8.20;1.00;;;;;;5013757;28;20043;-87
2023/04/26 11:23:30;;;;;;;5.43;1.90;;;7.90;99.90;;;;;;5033283;28;20045;-88
2023/04/26 11:26:03;;;;;;;6.00;2.08;;;7.60;1.00;;;;;;5029486;28;20072;-87
2023/04/26 11:28:33;;;;;;;4.55;1.70;;;7.40;99.90;;;;;;5032416;28;20037;-87
2023/04/26 11:31:00;;;;;;;5.60;2.10;;;7.40;99.90;;;;;;5012551;28;20045;-87
2023/04/26 11:33:25;;;;;;;4.45;2.72;;;7.40;99.90;;;;;;5017051;28;20033;-87
2023/04/26 11:35:53;;;;;;;4.50;2.30;;;7.60;99.90;;;;;;5016170;28;20473;-87
2023/04/26 11:38:26;;;;;;;2.42;1.63;;;7.90;1.00;;;;;;5018092;28;20048;-87
2023/04/26 11:40:53;;;;;;;6.70;2.10;;;8.00;99.90;;;;;;5015717;28;20094;-88
2023/04/26 11:43:19;;;;;;;5.40;2.45;;;8.20;1.00;;;;;;5009609;28;20057;-88
2023/04/26 11:45:45;;;;;;;7.88;2.13;;;8.60;99.90;;;;;;5030000;28;20087;-88
2023/04/26 11:48:11;;;;;;;8.57;2.25;;;8.70;99.90;;;;;;5013669;28;20408;-87
2023/04/26 11:50:38;;;;;;;6.07;2.20;;;9.00;83.20;;;;;;5033815;28;20135;-88
2023/04/26 11:53:06;;;;;;;4.90;2.22;;;9.00;1.00;;;;;;5015895;28;20047;-87
2023/04/26 11:55:36;;;;;;;5.78;2.20;;;9.20;1.00;;;;;;5012827;28;20455;-88
2023/04/26 11:58:11;;;;;;;5.57;2.35;;;9.40;99.90;;;;;;5013546;28;20067;-88
2023/04/26 12:01:00;;;;;;;7.18;2.20;;;9.30;99.90;;;;;;5031583;28;20071;-87
2023/04/26 12:03:36;;;;;;;5.07;2.30;;;9.30;99.90;;;;;;5044825;28;20134;-87
2023/04/26 12:06:02;;;;;;;5.97;2.00;;;9.20;99.90;;;;;;5030809;28;20099;-88
2023/04/26 12:08:29;;;;;;;4.30;2.15;;;9.20;99.90;;;;;;5034240;28;20346;-88
2023/04/26 12:11:07;;;;;;;4.93;1.98;;;9.30;99.90;;;;;;5015301;28;20097;-87
2023/04/26 12:13:33;;;;;;;4.47;2.00;;;9.20;99.90;;;;;;5013895;28;20044;-88
2023/04/26 12:15:58;;;;;;;3.78;1.63;;;9.30;99.90;;;;;;5030592;28;20041;-88
2023/04/26 12:18:31;;;;;;;5.47;2.10;;;9.20;99.90;;;;;;5030163;28;20144;-89
2023/04/26 12:20:58;;;;;;;7.20;2.45;;;9.40;99.90;;;;;;5032985;28;20922;-88
2023/04/26 12:23:25;;;;;;;4.63;1.85;;;9.50;99.90;;;;;;5034841;28;20040;-87
2023/04/26 12:25:53;;;;;;;3.67;1.60;;;9.70;99.90;;;;;;5014721;28;20156;-88
2023/04/26 12:28:20;;;;;;;7.10;2.00;;;9.70;96.50;;;;;;5016544;28;20143;-88
2023/04/26 12:30:45;;;;;;;7.80;1.88;;;9.60;99.90;;;;;;5035280;28;20493;-88
2023/04/26 12:33:11;;;;;;;3.20;1.73;;;9.60;92.50;;;;;;5034265;28;20044;-87
2023/04/26 12:35:38;;;;;;;5.72;1.80;;;9.40;99.90;;;;;;5033999;28;21009;-88
2023/04/26 12:38:03;;;;;;;4.82;1.95;;;9.20;99.90;;;;;;5017773;28;20037;-88
2023/04/26 12:40:30;;;;;;;4.75;1.88;;;9.30;99.90;;;;;;5014932;28;20044;-87
2023/04/26 12:42:56;;;;;;;3.95;1.77;;;9.20;65.80;;;;;;5033025;28;20033;-88
2023/04/26 12:45:23;;;;;;;6.25;2.80;;;9.10;90.80;;;;;;5034973;28;20116;-88
2023/04/26 12:47:52;;;;;;;9.52;3.15;;;8.80;99.90;;;;;;5019033;28;20037;-87
2023/04/26 12:50:18;;;;;;;5.50;2.85;;;8.60;99.90;;;;;;5033162;28;20037;-89
2023/04/26 12:52:44;;;;;;;5.47;2.83;;;8.40;1.00;;;;;;5035647;28;20101;-87
2023/04/26 12:55:12;;;;;;;6.18;2.80;;;8.20;99.90;;;;;;5016797;28;20097;-87
2023/04/26 12:57:39;;;;;;;8.00;2.65;;;8.10;99.90;;;;;;5018913;28;20493;-89
2023/04/26 13:00:10;;;;;;;6.00;2.60;;;8.20;99.90;;;;;;5017513;28;20029;-88
2023/04/26 13:02:36;;;;;;;12.70;2.92;;;8.20;99.90;;;;;;5016886;28;20093;-87